createdAt,value
2018-01-22T00:00:51.065Z,9.00
2018-01-22T00:03:18.533Z,9.10
2018-01-22T00:05:46.812Z,9.10
2018-01-22T00:08:15.041Z,9.10
2018-01-22T00:10:42.680Z,9.10
2018-01-22T00:13:10.197Z,9.10
2018-01-22T00:15:38.409Z,9.20
2018-01-22T00:18:05.891Z,9.20
2018-01-22T00:20:33.429Z,9.20
2018-01-22T00:23:00.921Z,9.30
2018-01-22T00:25:28.671Z,9.40
2018-01-22T00:27:56.195Z,9.40
2018-01-22T00:30:23.711Z,9.50
2018-01-22T00:32:51.232Z,9.50
2018-01-22T00:35:18.782Z,9.40
2018-01-22T00:37:46.989Z,9.30
2018-01-22T00:40:15.476Z,9.30
2018-01-22T00:42:42.991Z,9.30
2018-01-22T00:45:10.449Z,9.30
2018-01-22T00:47:37.929Z,9.40
2018-01-22T00:50:05.453Z,9.40
2018-01-22T00:52:32.951Z,9.50
2018-01-22T00:55:00.526Z,9.50
2018-01-22T00:57:28.071Z,9.40
2018-01-22T00:59:55.650Z,9.40
2018-01-22T01:02:23.223Z,9.50
2018-01-22T01:04:50.810Z,9.50
2018-01-22T01:07:18.259Z,9.60
2018-01-22T01:09:45.759Z,9.70
2018-01-22T01:12:13.284Z,9.70
2018-01-22T01:14:41.497Z,9.90
2018-01-22T01:17:08.993Z,9.90
2018-01-22T01:19:36.537Z,9.90
2018-01-22T01:22:04.071Z,9.90
2018-01-22T01:24:31.585Z,9.90
2018-01-22T01:27:00.011Z,10.20
2018-01-22T01:29:27.520Z,10.20
2018-01-22T01:31:55.010Z,10.30
2018-01-22T01:34:22.535Z,10.50
2018-01-22T01:36:50.081Z,10.60
2018-01-22T01:39:17.594Z,10.60
2018-01-22T01:41:45.104Z,10.70
2018-01-22T01:44:12.622Z,10.70
2018-01-22T01:46:40.143Z,10.80
2018-01-22T01:49:08.355Z,10.80
2018-01-22T01:51:35.944Z,10.80
2018-01-22T01:54:03.466Z,10.80
2018-01-22T01:56:31.007Z,10.80
2018-01-22T01:58:58.488Z,10.90
2018-01-22T02:01:26.017Z,10.80
2018-01-22T02:03:53.605Z,10.80
2018-01-22T02:06:21.213Z,10.90
2018-01-22T02:08:49.576Z,10.90
2018-01-22T02:11:17.300Z,10.90
2018-01-22T02:13:44.797Z,10.90
2018-01-22T02:16:12.297Z,11.00
2018-01-22T02:18:39.984Z,11.00
2018-01-22T02:21:07.532Z,11.00
2018-01-22T02:23:35.066Z,11.00
2018-01-22T02:26:03.364Z,11.00
2018-01-22T02:28:30.866Z,10.90
2018-01-22T02:30:58.360Z,11.00
2018-01-22T02:33:26.642Z,11.10
2018-01-22T02:35:54.083Z,11.10
2018-01-22T02:38:21.561Z,11.10
2018-01-22T02:40:49.049Z,11.10
2018-01-22T02:43:16.540Z,11.10
2018-01-22T02:45:44.063Z,11.10
2018-01-22T02:48:11.581Z,11.10
2018-01-22T02:50:39.153Z,11.10
2018-01-22T02:53:07.410Z,11.00
2018-01-22T02:55:35.669Z,11.10
2018-01-22T02:58:03.178Z,11.00
2018-01-22T03:00:30.618Z,11.00
2018-01-22T03:02:58.124Z,11.10
2018-01-22T03:05:25.637Z,11.10
2018-01-22T03:07:53.182Z,11.10
2018-01-22T03:10:21.481Z,11.10
2018-01-22T03:12:49.002Z,11.10
2018-01-22T03:15:16.516Z,11.00
2018-01-22T03:17:44.098Z,11.00
2018-01-22T03:20:11.622Z,11.00
2018-01-22T03:22:39.299Z,11.00
2018-01-22T03:25:06.750Z,11.00
2018-01-22T03:27:34.207Z,11.00
2018-01-22T03:30:01.713Z,11.10
2018-01-22T03:32:29.163Z,11.10
2018-01-22T03:34:56.649Z,11.20
2018-01-22T03:37:24.108Z,11.20
2018-01-22T03:39:52.396Z,11.20
2018-01-22T03:42:19.908Z,11.20
2018-01-22T03:44:47.398Z,11.30
2018-01-22T03:47:15.081Z,11.30
2018-01-22T03:49:42.614Z,11.30
2018-01-22T03:52:10.162Z,11.40
2018-01-22T03:54:39.289Z,11.40
2018-01-22T03:57:06.865Z,11.40
2018-01-22T03:59:34.370Z,11.50
2018-01-22T04:02:02.049Z,11.50
2018-01-22T04:04:29.728Z,11.50
2018-01-22T04:06:57.343Z,11.50
2018-01-22T04:09:24.825Z,11.40
2018-01-22T04:11:52.491Z,11.40
2018-01-22T04:14:20.763Z,11.50
2018-01-22T04:16:48.285Z,11.50
2018-01-22T04:19:15.786Z,11.50
2018-01-22T04:21:44.085Z,11.50
2018-01-22T04:24:12.434Z,11.50
2018-01-22T04:26:40.001Z,11.50
2018-01-22T04:29:08.335Z,11.50
2018-01-22T04:31:35.834Z,11.50
2018-01-22T04:34:03.354Z,11.50
2018-01-22T04:36:30.875Z,11.50
2018-01-22T04:38:59.158Z,11.40
2018-01-22T04:41:26.651Z,11.40
2018-01-22T04:43:54.228Z,11.50
2018-01-22T04:46:21.766Z,11.50
2018-01-22T04:48:49.539Z,11.50
2018-01-22T04:51:17.195Z,11.50
2018-01-22T04:53:44.693Z,11.50
2018-01-22T04:56:12.237Z,11.50
2018-01-22T04:58:39.740Z,11.50
2018-01-22T05:01:07.191Z,11.50
2018-01-22T05:03:35.570Z,11.50
2018-01-22T05:06:03.843Z,11.50
2018-01-22T05:08:32.161Z,11.50
2018-01-22T05:10:59.702Z,11.50
2018-01-22T05:13:27.223Z,11.50
2018-01-22T05:15:55.606Z,11.60
2018-01-22T05:18:23.131Z,11.60
2018-01-22T05:20:50.629Z,11.60
2018-01-22T05:23:18.254Z,11.70
2018-01-22T05:25:45.821Z,11.70
2018-01-22T05:28:13.314Z,11.70
2018-01-22T05:30:41.682Z,11.70
2018-01-22T05:33:09.993Z,11.50
2018-01-22T05:35:37.522Z,11.50
2018-01-22T05:38:05.134Z,11.50
2018-01-22T05:40:32.652Z,11.40
2018-01-22T05:43:00.177Z,11.30
2018-01-22T05:45:27.751Z,11.20
2018-01-22T05:47:55.262Z,11.00
2018-01-22T05:50:22.798Z,10.90
2018-01-22T05:52:50.357Z,10.80
2018-01-22T05:55:17.852Z,10.80
2018-01-22T05:57:45.396Z,10.90
2018-01-22T06:00:12.974Z,10.80
2018-01-22T06:02:40.587Z,10.90
2018-01-22T06:05:08.231Z,11.10
2018-01-22T06:07:35.936Z,11.20
2018-01-22T06:10:03.714Z,11.10
2018-01-22T06:12:31.265Z,11.10
2018-01-22T06:14:58.978Z,11.20
2018-01-22T06:17:27.322Z,11.20
2018-01-22T06:19:54.835Z,11.10
2018-01-22T06:22:23.311Z,11.10
2018-01-22T06:24:50.816Z,10.90
2018-01-22T06:27:18.434Z,11.00
2018-01-22T06:29:46.125Z,11.10
2018-01-22T06:32:13.621Z,11.10
2018-01-22T06:34:41.372Z,11.10
2018-01-22T06:37:08.957Z,11.10
2018-01-22T06:39:36.467Z,11.10
2018-01-22T06:42:03.976Z,11.00
2018-01-22T06:44:32.251Z,11.10
2018-01-22T06:46:59.776Z,11.00
2018-01-22T06:49:28.147Z,11.00
2018-01-22T06:51:55.639Z,11.00
2018-01-22T06:54:23.145Z,10.80
2018-01-22T06:56:50.664Z,10.80
2018-01-22T06:59:18.742Z,10.80
2018-01-22T07:01:47.197Z,10.90
2018-01-22T07:04:14.895Z,10.80
2018-01-22T07:06:43.213Z,10.90
2018-01-22T07:09:10.724Z,10.80
2018-01-22T07:11:38.303Z,10.80
2018-01-22T07:14:06.610Z,10.90
2018-01-22T07:16:34.138Z,10.90
2018-01-22T07:19:02.133Z,11.00
2018-01-22T07:21:29.656Z,10.90
2018-01-22T07:23:58.041Z,10.90
2018-01-22T07:26:27.419Z,10.90
2018-01-22T07:28:54.895Z,10.90
2018-01-22T07:31:22.372Z,10.90
2018-01-22T07:33:50.001Z,11.00
2018-01-22T07:36:17.667Z,11.10
2018-01-22T07:38:46.073Z,11.10
2018-01-22T07:41:13.652Z,11.10
2018-01-22T07:43:41.189Z,10.90
2018-01-22T07:46:08.914Z,10.90
2018-01-22T07:48:36.398Z,10.80
2018-01-22T07:51:03.989Z,10.80
2018-01-22T07:53:31.624Z,10.80
2018-01-22T07:55:59.923Z,10.70
2018-01-22T07:58:27.418Z,10.70
2018-01-22T08:00:54.985Z,10.70
2018-01-22T08:03:22.479Z,10.50
2018-01-22T08:05:50.826Z,10.30
2018-01-22T08:08:18.323Z,10.30
2018-01-22T08:10:45.906Z,10.30
2018-01-22T08:13:14.222Z,10.50
2018-01-22T08:15:41.760Z,10.50
2018-01-22T08:18:09.290Z,10.50
2018-01-22T08:20:36.813Z,10.60
2018-01-22T08:23:04.439Z,10.70
2018-01-22T08:25:31.947Z,10.80
2018-01-22T08:28:00.227Z,10.70
2018-01-22T08:30:27.775Z,10.70
2018-01-22T08:32:56.129Z,10.80
2018-01-22T08:35:23.596Z,10.80
2018-01-22T08:37:51.903Z,11.00
2018-01-22T08:40:19.477Z,10.90
2018-01-22T08:42:47.065Z,10.90
2018-01-22T08:45:15.175Z,10.90
2018-01-22T08:47:42.787Z,10.90
2018-01-22T08:50:10.334Z,11.00
2018-01-22T08:52:37.934Z,10.90
2018-01-22T08:55:05.709Z,11.00
2018-01-22T08:57:33.195Z,11.00
2018-01-22T09:00:00.729Z,11.00
2018-01-22T09:02:28.258Z,11.10
2018-01-22T09:04:55.798Z,11.00
2018-01-22T09:07:23.327Z,10.90
2018-01-22T09:09:51.633Z,10.80
2018-01-22T09:12:19.181Z,10.80
2018-01-22T09:14:46.719Z,10.90
2018-01-22T09:17:14.971Z,10.70
2018-01-22T09:19:43.394Z,10.80
2018-01-22T09:22:11.017Z,10.80
2018-01-22T09:24:38.545Z,10.90
2018-01-22T09:27:06.076Z,10.90
2018-01-22T09:29:33.661Z,11.00
2018-01-22T09:32:01.210Z,11.00
2018-01-22T09:34:28.977Z,11.10
2018-01-22T09:36:56.513Z,11.10
2018-01-22T09:39:24.832Z,11.10
2018-01-22T09:41:52.348Z,11.20
2018-01-22T09:44:19.857Z,11.20
2018-01-22T09:46:47.376Z,11.20
2018-01-22T09:49:15.105Z,11.10
2018-01-22T09:51:42.639Z,11.10
2018-01-22T09:54:10.137Z,11.20
2018-01-22T09:56:38.430Z,11.40
2018-01-22T09:59:05.883Z,11.30
2018-01-22T10:01:33.396Z,11.40
2018-01-22T10:04:01.041Z,11.50
2018-01-22T10:06:28.742Z,11.50
2018-01-22T10:08:56.328Z,11.50
2018-01-22T10:11:24.039Z,11.60
2018-01-22T10:13:51.557Z,11.60
2018-01-22T10:16:19.096Z,11.60
2018-01-22T10:18:46.693Z,11.70
2018-01-22T10:21:14.393Z,11.80
2018-01-22T10:23:43.102Z,11.90
2018-01-22T10:26:11.464Z,11.70
2018-01-22T10:28:39.092Z,11.70
2018-01-22T10:31:06.619Z,11.50
2018-01-22T10:33:34.120Z,11.50
2018-01-22T10:36:01.585Z,11.60
2018-01-22T10:38:29.086Z,11.70
2018-01-22T10:40:57.390Z,11.80
2018-01-22T10:43:24.852Z,11.80
2018-01-22T10:45:52.394Z,11.90
2018-01-22T10:48:19.981Z,12.10
2018-01-22T10:50:47.492Z,12.10
2018-01-22T10:53:15.057Z,12.20
2018-01-22T10:55:43.585Z,12.40
2018-01-22T10:58:11.184Z,12.40
2018-01-22T11:00:38.640Z,12.50
2018-01-22T11:03:06.880Z,12.70
2018-01-22T11:05:34.407Z,12.60
2018-01-22T11:08:01.909Z,12.70
2018-01-22T11:10:29.402Z,12.70
2018-01-22T11:12:56.974Z,12.80
2018-01-22T11:18:22.435Z,12.90
2018-01-22T11:20:49.895Z,13.10
2018-01-22T11:23:17.396Z,13.00
2018-01-22T11:25:44.858Z,13.10
2018-01-22T11:28:12.457Z,13.10
2018-01-22T11:30:40.061Z,13.10
2018-01-22T11:33:07.561Z,13.10
2018-01-22T11:35:36.041Z,13.20
2018-01-22T11:38:03.649Z,13.20
2018-01-22T11:40:31.162Z,13.10
2018-01-22T11:42:58.766Z,13.10
2018-01-22T11:45:26.314Z,13.10
2018-01-22T11:47:54.310Z,13.20
2018-01-22T11:50:21.810Z,13.20
2018-01-22T11:52:50.111Z,13.10
2018-01-22T11:55:17.666Z,13.10
2018-01-22T11:57:45.198Z,13.20
2018-01-22T12:00:12.705Z,13.10
2018-01-22T12:02:40.251Z,13.10
2018-01-22T12:05:08.117Z,13.10
2018-01-22T12:07:35.667Z,13.10
2018-01-22T12:10:03.281Z,13.10
2018-01-22T12:12:30.875Z,13.10
2018-01-22T12:14:58.562Z,13.10
2018-01-22T12:17:26.042Z,13.10
2018-01-22T12:19:53.597Z,13.00
2018-01-22T12:22:21.339Z,13.10
2018-01-22T12:24:48.954Z,13.00
2018-01-22T12:27:17.008Z,13.00
2018-01-22T12:29:44.541Z,13.00
2018-01-22T12:32:12.828Z,13.10
2018-01-22T12:34:40.451Z,13.00
2018-01-22T12:37:08.026Z,13.10
2018-01-22T12:39:35.585Z,13.20
2018-01-22T12:42:03.167Z,13.30
2018-01-22T12:44:30.684Z,13.40
2018-01-22T12:46:58.240Z,13.60
2018-01-22T12:49:26.453Z,13.60
2018-01-22T12:51:53.993Z,13.60
2018-01-22T12:54:21.541Z,13.60
2018-01-22T12:56:49.309Z,13.60
2018-01-22T12:59:16.931Z,13.60
2018-01-22T13:01:46.522Z,13.60
2018-01-22T13:04:14.031Z,13.60
2018-01-22T13:06:41.853Z,13.50
2018-01-22T13:09:09.491Z,13.30
2018-01-22T13:11:37.689Z,13.20
2018-01-22T13:14:05.189Z,13.30
2018-01-22T13:16:33.495Z,13.10
2018-01-22T13:19:01.065Z,13.10
2018-01-22T13:21:28.542Z,13.10
2018-01-22T13:23:57.078Z,13.20
2018-01-22T13:26:24.594Z,13.30
2018-01-22T13:28:53.644Z,13.30
2018-01-22T13:31:21.191Z,13.30
2018-01-22T13:33:48.730Z,13.30
2018-01-22T13:36:17.007Z,13.10
2018-01-22T13:38:45.412Z,13.10
2018-01-22T13:41:15.459Z,13.10
2018-01-22T13:43:43.034Z,13.10
2018-01-22T13:46:11.344Z,13.20
2018-01-22T13:48:38.836Z,13.10
2018-01-22T13:51:06.379Z,13.20
2018-01-22T13:53:33.943Z,13.10
2018-01-22T13:56:01.472Z,13.20
2018-01-22T13:58:29.070Z,13.20
2018-01-22T14:00:56.590Z,13.00
2018-01-22T14:03:24.094Z,13.00
2018-01-22T14:05:51.596Z,12.90
2018-01-22T14:08:19.147Z,12.90
2018-01-22T14:10:46.730Z,13.00
2018-01-22T14:13:14.985Z,13.00
2018-01-22T14:15:42.557Z,13.00
2018-01-22T14:18:10.180Z,12.90
2018-01-22T14:20:38.035Z,12.80
2018-01-22T14:23:05.909Z,12.90
2018-01-22T14:25:33.459Z,12.90
2018-01-22T14:28:00.975Z,12.80
2018-01-22T14:30:29.417Z,12.90
2018-01-22T14:32:56.964Z,12.90
2018-01-22T14:35:24.459Z,12.80
2018-01-22T14:37:51.949Z,12.90
2018-01-22T14:40:19.536Z,12.90
2018-01-22T14:42:47.836Z,13.00
2018-01-22T14:45:15.423Z,13.00
2018-01-22T14:47:42.997Z,13.20
2018-01-22T14:50:10.474Z,13.20
2018-01-22T14:52:38.005Z,13.30
2018-01-22T14:55:06.309Z,13.40
2018-01-22T14:57:33.779Z,13.40
2018-01-22T15:00:01.362Z,13.50
2018-01-22T15:02:29.804Z,13.40
2018-01-22T15:04:57.315Z,13.40
2018-01-22T15:07:24.858Z,13.30
2018-01-22T15:09:52.351Z,13.20
2018-01-22T15:12:19.851Z,13.20
2018-01-22T15:14:47.390Z,13.10
2018-01-22T15:17:14.866Z,13.20
2018-01-22T15:19:42.345Z,13.10
2018-01-22T15:22:09.870Z,13.20
2018-01-22T15:24:37.360Z,13.30
2018-01-22T15:27:04.925Z,13.40
2018-01-22T15:29:32.438Z,13.40
2018-01-22T15:31:59.933Z,13.50
2018-01-22T15:34:27.676Z,13.50
2018-01-22T15:36:55.224Z,13.60
2018-01-22T15:39:22.785Z,13.60
2018-01-22T15:41:50.416Z,13.60
2018-01-22T15:44:17.946Z,13.60
2018-01-22T15:46:45.464Z,13.70
2018-01-22T15:49:12.954Z,13.70
2018-01-22T15:51:40.429Z,13.60
2018-01-22T15:54:08.310Z,13.60
2018-01-22T15:56:36.590Z,13.60
2018-01-22T15:59:04.052Z,13.70
2018-01-22T16:01:32.351Z,13.70
2018-01-22T16:04:00.676Z,13.70
2018-01-22T16:06:28.167Z,13.70
2018-01-22T16:08:55.622Z,13.70
2018-01-22T16:11:23.151Z,13.60
2018-01-22T16:13:50.690Z,13.60
2018-01-22T16:16:18.227Z,13.60
2018-01-22T16:18:45.689Z,13.70
2018-01-22T16:21:13.316Z,13.60
2018-01-22T16:23:42.632Z,13.70
2018-01-22T16:26:10.821Z,13.60
2018-01-22T16:28:38.391Z,13.60
2018-01-22T16:31:05.955Z,13.60
2018-01-22T16:33:33.441Z,13.60
2018-01-22T16:36:00.999Z,13.60
2018-01-22T16:38:28.665Z,13.60
2018-01-22T16:40:56.182Z,13.70
2018-01-22T16:43:23.760Z,13.70
2018-01-22T16:45:51.476Z,13.60
2018-01-22T16:48:19.742Z,13.60
2018-01-22T16:50:48.059Z,13.70
2018-01-22T16:53:15.595Z,13.70
2018-01-22T16:55:43.125Z,13.60
2018-01-22T16:58:10.957Z,13.70
2018-01-22T17:00:38.459Z,13.70
2018-01-22T17:03:06.757Z,13.70
2018-01-22T17:05:35.201Z,13.70
2018-01-22T17:08:02.766Z,13.70
2018-01-22T17:10:30.323Z,13.80
2018-01-22T17:12:57.868Z,13.70
2018-01-22T17:15:26.685Z,13.70
2018-01-22T17:17:54.228Z,13.70
2018-01-22T17:20:21.773Z,13.70
2018-01-22T17:22:49.286Z,13.70
2018-01-22T17:25:17.154Z,13.80
2018-01-22T17:27:45.414Z,13.80
2018-01-22T17:30:14.291Z,13.80
2018-01-22T17:32:41.777Z,13.80
2018-01-22T17:35:10.340Z,13.80
2018-01-22T17:37:37.886Z,13.80
2018-01-22T17:40:05.394Z,13.50
2018-01-22T17:42:33.736Z,13.30
2018-01-22T17:45:01.266Z,13.10
2018-01-22T17:47:28.770Z,13.00
2018-01-22T17:49:57.067Z,13.10
2018-01-22T17:52:24.609Z,13.10
2018-01-22T17:54:52.157Z,13.20
2018-01-22T17:57:20.456Z,13.20
2018-01-22T17:59:48.794Z,13.20
2018-01-22T18:02:16.354Z,13.20
2018-01-22T18:04:43.874Z,13.20
2018-01-22T18:07:11.376Z,13.20
2018-01-22T18:09:38.921Z,13.20
2018-01-22T18:12:06.473Z,13.20
2018-01-22T18:14:33.999Z,13.20
2018-01-22T18:17:01.746Z,13.20
2018-01-22T18:19:29.571Z,13.20
2018-01-22T18:21:57.083Z,13.10
2018-01-22T18:24:24.639Z,13.20
2018-01-22T18:26:52.127Z,13.20
2018-01-22T18:29:19.641Z,13.10
2018-01-22T18:31:48.024Z,13.00
2018-01-22T18:34:15.526Z,13.00
2018-01-22T18:36:43.084Z,13.00
2018-01-22T18:39:10.617Z,13.10
2018-01-22T18:41:38.126Z,13.10
2018-01-22T18:44:05.610Z,13.10
2018-01-22T18:46:33.284Z,13.10
2018-01-22T18:49:01.775Z,13.10
2018-01-22T18:51:30.090Z,13.10
2018-01-22T18:53:57.646Z,13.10
2018-01-22T18:56:25.214Z,13.10
2018-01-22T18:58:52.911Z,13.10
2018-01-22T19:01:20.510Z,13.20
2018-01-22T19:03:48.009Z,13.20
2018-01-22T19:06:15.479Z,13.10
2018-01-22T19:08:47.209Z,13.10
2018-01-22T19:11:14.865Z,13.10
2018-01-22T19:13:42.413Z,13.10
2018-01-22T19:16:10.014Z,13.10
2018-01-22T19:18:38.575Z,13.10
2018-01-22T19:21:06.144Z,13.10
2018-01-22T19:23:33.703Z,13.20
2018-01-22T19:26:01.260Z,13.10
2018-01-22T19:28:28.729Z,13.10
2018-01-22T19:30:56.283Z,13.10
2018-01-22T19:33:24.084Z,13.10
2018-01-22T19:35:52.407Z,13.20
2018-01-22T19:38:19.958Z,13.20
2018-01-22T19:40:47.527Z,13.10
2018-01-22T19:43:15.041Z,13.10
2018-01-22T19:45:44.373Z,13.10
2018-01-22T19:48:12.070Z,13.10
2018-01-22T19:50:39.583Z,13.10
2018-01-22T19:53:07.186Z,13.10
2018-01-22T19:55:34.812Z,13.10
2018-01-22T19:58:02.553Z,13.10
2018-01-22T20:00:31.884Z,13.10
2018-01-22T20:02:59.422Z,13.10
2018-01-22T20:05:27.939Z,13.10
2018-01-22T20:07:55.528Z,13.20
2018-01-22T20:10:23.067Z,13.20
2018-01-22T20:12:50.669Z,13.20
2018-01-22T20:15:18.957Z,13.10
2018-01-22T20:17:49.352Z,13.10
2018-01-22T20:20:16.830Z,13.10
2018-01-22T20:22:44.317Z,13.10
2018-01-22T20:25:11.834Z,13.10
2018-01-22T20:27:40.193Z,13.10
2018-01-22T20:30:07.739Z,13.00
2018-01-22T20:32:35.380Z,13.00
2018-01-22T20:35:02.919Z,13.00
2018-01-22T20:37:30.397Z,13.00
2018-01-22T20:39:57.894Z,13.00
2018-01-22T20:42:25.377Z,13.00
2018-01-22T20:44:52.923Z,13.00
2018-01-22T20:47:21.244Z,13.10
2018-01-22T20:49:48.890Z,13.00
2018-01-22T20:52:17.192Z,13.00
2018-01-22T20:54:44.688Z,13.00
2018-01-22T20:57:12.409Z,13.00
2018-01-22T20:59:39.895Z,13.00
2018-01-22T21:02:07.415Z,13.00
2018-01-22T21:04:34.912Z,13.10
2018-01-22T21:07:02.461Z,13.10
2018-01-22T21:09:30.182Z,13.10
2018-01-22T21:11:58.420Z,13.10
2018-01-22T21:14:25.982Z,13.10
2018-01-22T21:16:53.522Z,13.10
2018-01-22T21:19:21.159Z,13.10
2018-01-22T21:21:48.745Z,13.10
2018-01-22T21:24:16.260Z,13.10
2018-01-22T21:26:43.951Z,13.10
2018-01-22T21:29:11.652Z,13.10
2018-01-22T21:31:39.943Z,13.10
2018-01-22T21:34:08.347Z,13.10
2018-01-22T21:36:35.944Z,13.10
2018-01-22T21:39:03.585Z,13.10
2018-01-22T21:41:31.980Z,13.00
2018-01-22T21:43:59.837Z,13.10
2018-01-22T21:46:27.381Z,13.00
2018-01-22T21:48:54.862Z,13.00
2018-01-22T21:51:22.356Z,13.10
2018-01-22T21:53:49.917Z,13.10
2018-01-22T21:56:18.150Z,13.20
2018-01-22T21:58:45.660Z,13.20
2018-01-22T22:01:13.994Z,13.30
2018-01-22T22:03:42.443Z,13.30
2018-01-22T22:06:10.739Z,13.30
2018-01-22T22:08:38.359Z,13.30
2018-01-22T22:11:06.625Z,13.20
2018-01-22T22:13:34.127Z,13.20
2018-01-22T22:16:01.654Z,13.30
2018-01-22T22:18:29.265Z,13.30
2018-01-22T22:20:56.792Z,13.20
2018-01-22T22:23:24.359Z,13.20
2018-01-22T22:25:51.885Z,13.20
2018-01-22T22:28:20.469Z,13.20
2018-01-22T22:30:48.973Z,13.10
2018-01-22T22:33:17.229Z,13.00
2018-01-22T22:35:45.750Z,13.00
2018-01-22T22:38:13.219Z,12.90
2018-01-22T22:40:40.745Z,12.90
2018-01-22T22:43:08.509Z,12.90
2018-01-22T22:45:36.798Z,12.90
2018-01-22T22:48:04.302Z,12.90
2018-01-22T22:50:31.816Z,12.90
2018-01-22T22:52:59.426Z,12.90
2018-01-22T22:55:27.023Z,12.90
2018-01-22T22:57:54.596Z,12.80
2018-01-22T23:00:23.006Z,12.80
2018-01-22T23:02:50.702Z,12.70
2018-01-22T23:05:18.214Z,12.70
2018-01-22T23:07:45.719Z,12.80
2018-01-22T23:10:13.183Z,12.80
2018-01-22T23:12:41.484Z,12.70
2018-01-22T23:15:09.789Z,12.60
2018-01-22T23:17:37.327Z,12.60
2018-01-22T23:20:04.910Z,12.50
2018-01-22T23:22:32.505Z,12.30
2018-01-22T23:25:00.321Z,12.20
2018-01-22T23:27:27.938Z,12.20
2018-01-22T23:29:55.440Z,12.20
2018-01-22T23:32:23.924Z,12.20
2018-01-22T23:34:51.427Z,12.20
2018-01-22T23:37:19.191Z,12.20
2018-01-22T23:39:46.732Z,12.20
2018-01-22T23:42:15.544Z,12.20
2018-01-22T23:44:43.193Z,12.20
2018-01-22T23:47:10.648Z,12.30
2018-01-22T23:49:38.174Z,12.30
2018-01-22T23:52:07.458Z,12.40
2018-01-22T23:54:35.789Z,12.40
2018-01-22T23:57:03.248Z,12.30
2018-01-22T23:59:31.730Z,12.30
